Las horas y fechas están en horario UTC
Sumar 1 hora en el horario de invierno y 2 en el de verano

Informes METAR cercanos

 

LEZL - Sevilla (civ/Mil, Spain
Distance from station: NNE 24km
Actualización: 21/10/2018 21:30
Despejado
Despejado
 Viento del ENE
Viento: ENE 6 km/h
Temperatura: 19°C
Rocío: 17°C
Humedad: 88%
Barómetro: 1018 hPa
Resumen: Despejado
Visibility: greater than 10 km
2018/10/21 19:30 LEZL 211930Z 06003KT CAVOK 19/17 Q1018 NOSIG
LEMO - Moron (sp-Usafb), Spain
Distance from station: E 38km
Actualización: 21/10/2018 22:00
Despejado
Despejado
 Viento del NE
Viento: NE 6 km/h
Temperatura: 17°C
Rocío: 16°C
Humedad: 94%
Barómetro: 1018 hPa
Resumen: Despejado
Visibility: greater than 10 km
2018/10/21 20:00 LEMO 212000Z 04003KT CAVOK 17/16 Q1018 NOSIG
LEJR - Jerez (civ/Mil), Spain
Distance from station: S 53km
Actualización: 21/10/2018 22:00
Parcialmente nuboso
Parcialmente nuboso
 Viento del NNO
Viento: NNO 6 km/h
Temperatura: 18°C
Rocío: 17°C
Humedad: 94%
Barómetro: 1018 hPa
Clouds: Parcialmente nuboso
Visibility: 10 km
Cloud details: Few Clouds 305 m
Parcialmente nuboso 1372 m
2018/10/21 20:00 LEJR 212000Z 33003KT 9999 FEW010 SCT045 18/17 Q1018
 
LERT - Rota Naval Stati, Spain
Distance from station: SSO 71km
Actualización: 21/10/2018 21:00
Few Clouds
Few Clouds
 Viento del calm
Viento: Calma
Temperatura: 19°C
Rocío: 16°C
Humedad: 83%
Barómetro: 1017 hPa
Clouds: Few Clouds
Visibility: 10 km
Cloud details: Few Clouds 1006 m
2018/10/21 19:00 LERT 211900Z 00000KT 9999 FEW033 19/16 Q1017 NOSIG
LEBA - Cordoba Airport, Spain
Distance from station: ENE 128km
Actualización: 21/10/2018 21:30
Nearby thunderstorm, Thunderstorm
Nearby thunderstorm, Thunderstorm
 Viento del OSO
Viento: OSO 2 km/h
Temperatura: 18°C
Rocío: 17°C
Humedad: 94%
Barómetro: 1018 hPa
Resumen: Nearby Thunderstorm
Clouds: Thunderstorm
Visibility: 10 km
2018/10/21 19:30 LEBA 211930Z AUTO 25001KT 9999 VCTS ///CB 18/17 Q1018
LXGB - Gibraltar (civ/M, Gibraltar
Distance from station: SSE 137km
Actualización: 21/10/2018 20:50
Muy nuboso
Muy nuboso
 Viento del ONO
Viento: ONO 6 km/h
Temperatura: 19°C
Rocío: 17°C
Humedad: 88%
Barómetro: 1018 hPa
Clouds: Muy nuboso
Visibility: 10 km
Cloud details: Muy nuboso 884 m
Muy nuboso 1128 m
2018/10/21 18:50 LXGB 211850Z 30003KT 9999 BKN029 BKN037 19/17 Q1018 NOSIG
 
LEMG - Malaga (civ/Mil), Spain
Distance from station: ESE 150km
Actualización: 21/10/2018 21:30
Muy nuboso
Muy nuboso
 Viento del ONO
Viento: ONO 9 km/h
Temperatura: 19°C
Rocío: 16°C
Humedad: 83%
Barómetro: 1018 hPa
Clouds: Muy nuboso
Visibility: 10 km
Cloud details: Few Clouds 610 m
Muy nuboso 914 m
2018/10/21 19:30 LEMG 211930Z 30005KT 9999 FEW020 BKN030 19/16 Q1018 NOSIG
GMTT - Tangier/Boukhalf, Morocco
Distance from station: S 169km
Actualización: 21/10/2018 22:00
Muy nuboso
Muy nuboso
 Viento del ENE
Viento: ENE 9 km/h
Temperatura: 19°C
Rocío: 16°C
Humedad: 83%
Barómetro: 1017 hPa
Clouds: Muy nuboso
Visibility: 10 km
Cloud details: Parcialmente nuboso 488 m
Muy nuboso 6096 m
2018/10/21 20:00 GMTT 212000Z 06005KT 9999 SCT016 BKN200 19/16 Q1017 NOSIG
LPFR - Faro, Portugal
Distance from station: O 172km
Actualización: 21/10/2018 21:30
Few Clouds
Few Clouds
 Viento del E
Viento: E 7 km/h
Temperatura: 19°C
Rocío: 16°C
Humedad: 83%
Barómetro: 1017 hPa
Clouds: Few Clouds
Visibility: 10 km
Cloud details: Few Clouds 610 m
2018/10/21 19:30 LPFR 211930Z 10004KT 9999 FEW020 19/16 Q1017
 
LPBJ - Beja (por/Ger-Af, Portugal
Distance from station: ONO 192km
Actualización: 21/10/2018 21:00
Few Clouds
Few Clouds
 Viento del SSE
Viento: SSE 11 km/h
Temperatura: 18°C
Rocío: 13°C
Humedad: 73%
Barómetro: 1018 hPa
Clouds: Few Clouds
Visibility: 10 km
Cloud details: Few Clouds 914 m
2018/10/21 19:00 LPBJ 211900Z 16006KT 9999 FEW030 18/13 Q1018
LEBZ - Talavera Ab/Bada, Spain
Distance from station: NNO 194km
Actualización: 21/10/2018 21:00
Few Clouds
Few Clouds
 Viento del NE
Viento: NE 4 km/h
Temperatura: 20°C
Rocío: 16°C
Humedad: 78%
Barómetro: 1018 hPa
Clouds: Few Clouds
Visibility: 10 km
Cloud details: Few Clouds 1067 m
2018/10/21 19:00 LEBZ 211900Z 04002KT 9999 FEW035TCU 20/16 Q1018
LEMD - Madrid/Barajas, Spain
Distance from station: NE 415km
Actualización: 21/10/2018 21:30
Despejado
Despejado
 Viento del NNO
Viento: NNO 7 km/h
Temperatura: 17°C
Rocío: 14°C
Humedad: 83%
Barómetro: 1021 hPa
Resumen: Despejado
Visibility: greater than 10 km
2018/10/21 19:30 LEMD 211930Z 33004KT CAVOK 17/14 Q1021 NOSIG